createdAt,value
2022-08-18T00:01:59.372Z,26.69
2022-08-18T00:04:35.498Z,26.56
2022-08-18T00:07:04.295Z,27.53
2022-08-18T00:09:32.985Z,27.81
2022-08-18T00:12:01.533Z,27.87
2022-08-18T00:14:28.715Z,28.12
2022-08-18T00:16:56.149Z,28.02
2022-08-18T00:19:45.471Z,27.60
2022-08-18T00:22:15.012Z,27.33
2022-08-18T00:24:48.095Z,27.61
2022-08-18T00:27:28.774Z,27.63
2022-08-18T00:29:56.979Z,27.73
2022-08-18T00:32:25.712Z,27.45
2022-08-18T00:34:53.492Z,27.97
2022-08-18T00:37:21.295Z,27.99
2022-08-18T00:39:50.741Z,27.96
2022-08-18T00:42:28.684Z,28.19
2022-08-18T00:45:00.011Z,28.30
2022-08-18T00:47:41.385Z,28.43
2022-08-18T00:50:17.135Z,28.89
2022-08-18T00:52:45.536Z,29.08
2022-08-18T00:55:12.933Z,29.69
2022-08-18T00:57:40.094Z,29.94
2022-08-18T01:00:13.071Z,30.94
2022-08-18T01:02:43.251Z,30.61
2022-08-18T01:05:30.687Z,35.59
2022-08-18T01:07:58.116Z,35.57
2022-08-18T01:10:25.757Z,36.17
2022-08-18T01:12:53.820Z,34.96
2022-08-18T01:15:28.072Z,37.75
2022-08-18T01:18:16.655Z,36.36
2022-08-18T01:21:02.837Z,37.25
2022-08-18T01:23:30.016Z,36.96
2022-08-18T01:26:00.395Z,35.66
2022-08-18T01:28:27.971Z,34.85
2022-08-18T01:30:58.356Z,34.94
2022-08-18T01:33:32.438Z,34.06
2022-08-18T01:36:00.663Z,35.75
2022-08-18T01:38:28.095Z,34.96
2022-08-18T01:41:25.599Z,34.54
2022-08-18T01:43:42.713Z,36.05
2022-08-18T01:46:09.884Z,37.92
2022-08-18T01:48:37.209Z,35.33
2022-08-18T01:51:05.932Z,36.72
2022-08-18T01:53:33.296Z,36.31
2022-08-18T01:56:00.443Z,35.70
2022-08-18T01:58:31.554Z,36.88
2022-08-18T02:01:01.858Z,36.31
2022-08-18T02:03:30.519Z,39.32
2022-08-18T02:05:59.430Z,38.96
2022-08-18T02:08:28.107Z,37.25
2022-08-18T02:10:58.337Z,36.07
2022-08-18T02:13:26.499Z,36.78
2022-08-18T02:15:53.644Z,37.54
2022-08-18T02:18:41.399Z,37.14
2022-08-18T02:21:10.745Z,35.54
2022-08-18T02:23:40.059Z,35.53
2022-08-18T02:26:14.268Z,36.49
2022-08-18T02:28:41.759Z,35.55
2022-08-18T02:31:14.325Z,36.34
2022-08-18T02:33:42.186Z,34.94
2022-08-18T02:36:19.289Z,34.75
2022-08-18T02:38:54.666Z,34.22
2022-08-18T02:41:29.370Z,34.21
2022-08-18T02:43:58.052Z,35.49
2022-08-18T02:46:29.690Z,34.34
2022-08-18T02:48:58.070Z,34.13
2022-08-18T02:51:25.918Z,33.69
2022-08-18T02:53:54.027Z,33.52
2022-08-18T02:56:33.002Z,33.79
2022-08-18T02:59:08.786Z,33.74
2022-08-18T03:01:38.443Z,33.65
2022-08-18T03:04:06.668Z,33.84
2022-08-18T03:06:34.616Z,33.96
2022-08-18T03:09:04.445Z,34.38
2022-08-18T03:11:31.927Z,34.15
2022-08-18T03:14:00.380Z,34.08
2022-08-18T03:16:28.806Z,33.97
2022-08-18T03:18:55.990Z,34.22
2022-08-18T03:21:24.658Z,34.17
2022-08-18T03:24:00.755Z,34.67
2022-08-18T03:26:29.849Z,34.48
2022-08-18T03:28:58.021Z,34.39
2022-08-18T03:31:28.078Z,35.25
2022-08-18T03:33:59.364Z,34.79
2022-08-18T03:36:28.836Z,35.06
2022-08-18T03:38:56.775Z,35.18
2022-08-18T03:41:43.718Z,36.36
2022-08-18T03:44:14.394Z,35.83
2022-08-18T03:46:42.380Z,35.54
2022-08-18T03:49:09.666Z,35.18
2022-08-18T03:51:37.437Z,36.68
2022-08-18T03:54:05.618Z,40.63
2022-08-18T03:56:35.007Z,38.82
2022-08-18T03:59:04.235Z,41.20
2022-08-18T04:01:33.656Z,39.93
2022-08-18T04:04:02.331Z,41.15
2022-08-18T04:06:31.155Z,40.57
2022-08-18T04:09:00.547Z,43.09
2022-08-18T04:11:31.070Z,42.43
2022-08-18T04:14:04.516Z,42.73
2022-08-18T04:16:32.438Z,41.94
2022-08-18T04:19:05.454Z,42.03
2022-08-18T04:21:34.801Z,41.61
2022-08-18T04:24:04.066Z,43.82
2022-08-18T04:26:32.295Z,44.45
2022-08-18T04:29:02.475Z,43.53
2022-08-18T04:31:29.798Z,43.17
2022-08-18T04:33:57.448Z,42.32
2022-08-18T04:36:25.220Z,40.13
2022-08-18T04:38:52.425Z,40.29
2022-08-18T04:41:27.462Z,39.88
2022-08-18T04:43:55.796Z,38.51
2022-08-18T04:46:24.266Z,39.85
2022-08-18T04:48:52.356Z,41.37
2022-08-18T04:52:36.335Z,41.53
2022-08-18T04:54:07.545Z,40.80
2022-08-18T04:56:36.864Z,40.81
2022-08-18T04:59:10.878Z,40.84
2022-08-18T05:01:39.501Z,41.83
2022-08-18T05:04:06.913Z,41.19
2022-08-18T05:06:34.089Z,43.01
2022-08-18T05:09:03.067Z,43.59
2022-08-18T05:11:34.616Z,41.54
2022-08-18T05:14:02.929Z,41.49
2022-08-18T05:16:42.102Z,41.91
2022-08-18T05:19:19.195Z,39.89
2022-08-18T05:21:50.699Z,42.16
2022-08-18T05:24:19.608Z,42.58
2022-08-18T05:26:46.828Z,42.31
2022-08-18T05:29:19.047Z,42.38
2022-08-18T05:31:53.356Z,41.42
2022-08-18T05:34:21.295Z,40.31
2022-08-18T05:36:48.697Z,41.46
2022-08-18T05:39:21.494Z,41.68
2022-08-18T05:41:53.445Z,41.53
2022-08-18T05:44:27.532Z,42.31
2022-08-18T05:46:56.387Z,41.79
2022-08-18T05:49:24.989Z,42.37
2022-08-18T05:51:53.329Z,42.30
2022-08-18T05:54:40.093Z,44.16
2022-08-18T05:57:08.739Z,42.45
2022-08-18T05:59:37.464Z,40.75
2022-08-18T06:02:23.467Z,41.19
2022-08-18T06:05:16.560Z,42.08
2022-08-18T06:07:46.872Z,41.29
2022-08-18T06:10:14.166Z,40.96
2022-08-18T06:12:47.180Z,40.43
2022-08-18T06:15:20.942Z,41.47
2022-08-18T06:18:01.027Z,41.96
2022-08-18T06:20:47.276Z,42.49
2022-08-18T06:23:26.003Z,42.14
2022-08-18T06:25:55.333Z,40.60
2022-08-18T06:28:22.507Z,40.60
2022-08-18T06:31:08.346Z,40.84
2022-08-18T06:33:54.620Z,39.54
2022-08-18T06:36:46.339Z,40.16
2022-08-18T06:39:19.821Z,40.15
2022-08-18T06:41:49.062Z,39.01
2022-08-18T06:44:19.171Z,40.29
2022-08-18T06:46:46.315Z,40.54
2022-08-18T06:49:36.735Z,40.64
2022-08-18T06:52:19.584Z,39.69
2022-08-18T06:54:51.282Z,37.55
2022-08-18T06:57:27.985Z,36.75
2022-08-18T07:00:00.435Z,37.29
2022-08-18T07:02:45.090Z,36.32
2022-08-18T07:05:15.251Z,37.25
2022-08-18T07:07:43.336Z,37.01
2022-08-18T07:10:13.625Z,37.27
2022-08-18T07:12:41.073Z,37.10
2022-08-18T07:15:08.779Z,36.40
2022-08-18T07:17:42.728Z,35.95
2022-08-18T07:20:18.899Z,36.83
2022-08-18T07:22:53.466Z,35.22
2022-08-18T07:25:22.630Z,35.82
2022-08-18T07:27:50.564Z,36.85
2022-08-18T07:30:19.296Z,35.03
2022-08-18T07:32:57.335Z,34.60
2022-08-18T07:35:26.268Z,33.97
2022-08-18T07:37:55.479Z,34.04
2022-08-18T07:40:28.186Z,34.21
2022-08-18T07:43:01.453Z,33.58
2022-08-18T07:45:32.447Z,32.86
2022-08-18T07:48:38.788Z,33.57
2022-08-18T07:51:21.123Z,33.21
2022-08-18T07:53:56.187Z,33.16
2022-08-18T07:56:28.750Z,33.84
2022-08-18T07:58:56.310Z,32.25
2022-08-18T08:01:27.079Z,31.43
2022-08-18T08:07:22.515Z,33.14
2022-08-18T08:09:51.726Z,32.70
2022-08-18T08:12:19.378Z,32.00
2022-08-18T08:14:47.972Z,31.80
2022-08-18T08:17:23.616Z,32.59
2022-08-18T08:20:00.650Z,32.61
2022-08-18T08:22:49.321Z,31.08
2022-08-18T08:25:35.094Z,31.25
2022-08-18T08:28:12.325Z,30.41
2022-08-18T08:30:47.147Z,31.22
2022-08-18T08:33:33.521Z,30.91
2022-08-18T08:36:01.013Z,28.69
2022-08-18T08:38:42.151Z,28.86
2022-08-18T08:41:20.382Z,30.09
2022-08-18T08:43:49.472Z,28.87
2022-08-18T08:46:21.516Z,28.30
2022-08-18T08:49:07.571Z,27.64
2022-08-18T08:51:35.120Z,28.32
2022-08-18T08:54:07.276Z,28.34
2022-08-18T08:56:35.561Z,27.23
2022-08-18T08:59:13.225Z,27.32
2022-08-18T09:01:40.835Z,28.19
2022-08-18T09:04:14.364Z,28.54
2022-08-18T09:06:48.171Z,27.81
2022-08-18T09:09:24.726Z,28.30
2022-08-18T09:12:21.687Z,28.26
2022-08-18T09:14:56.528Z,28.31
2022-08-18T09:17:34.595Z,27.04
2022-08-18T09:20:07.911Z,27.96
2022-08-18T09:22:44.308Z,27.08
2022-08-18T09:25:12.995Z,26.01
2022-08-18T09:28:09.301Z,26.49
2022-08-18T09:30:51.507Z,26.59
2022-08-18T09:33:32.056Z,26.48
2022-08-18T09:35:59.196Z,24.83
2022-08-18T09:38:45.827Z,25.67
2022-08-18T09:41:32.362Z,26.19
2022-08-18T09:44:21.718Z,24.70
2022-08-18T09:46:55.903Z,26.38
2022-08-18T09:49:23.402Z,26.35
2022-08-18T09:51:51.519Z,26.33
2022-08-18T09:54:20.881Z,25.36
2022-08-18T09:56:54.091Z,25.26
2022-08-18T09:59:31.782Z,25.72
2022-08-18T10:02:20.068Z,24.17
2022-08-18T10:04:53.792Z,23.93
2022-08-18T10:07:23.179Z,24.67
2022-08-18T10:10:58.823Z,24.49
2022-08-18T10:13:17.663Z,24.34
2022-08-18T10:16:10.608Z,25.60
2022-08-18T10:18:41.604Z,25.04
2022-08-18T10:26:56.777Z,24.76
2022-08-18T10:29:23.922Z,23.83
2022-08-18T10:31:57.554Z,24.71
2022-08-18T10:34:38.390Z,23.76
2022-08-18T10:37:26.561Z,23.20
2022-08-18T10:39:55.889Z,23.28
2022-08-18T10:42:23.109Z,22.51
2022-08-18T10:44:50.579Z,22.92
2022-08-18T10:47:33.666Z,23.23
2022-08-18T10:50:03.913Z,23.50
2022-08-18T10:55:57.114Z,22.45
2022-08-18T10:58:44.118Z,23.28
2022-08-18T11:01:32.728Z,22.72
2022-08-18T11:04:14.291Z,22.22
2022-08-18T11:06:50.944Z,22.92
2022-08-18T11:09:25.031Z,22.33
2022-08-18T11:11:59.528Z,21.74
2022-08-18T11:14:27.513Z,21.72
2022-08-18T11:17:13.376Z,22.58
2022-08-18T11:19:43.618Z,22.19
2022-08-18T11:22:34.116Z,21.64
2022-08-18T11:25:03.047Z,21.27
2022-08-18T11:27:32.758Z,20.95
2022-08-18T11:30:01.330Z,21.30
2022-08-18T11:32:30.408Z,22.48
2022-08-18T11:35:00.379Z,22.34
2022-08-18T11:41:01.755Z,22.72
2022-08-18T11:43:13.724Z,22.51
2022-08-18T11:45:46.729Z,22.14
2022-08-18T11:48:14.166Z,22.09
2022-08-18T11:51:02.535Z,22.26
2022-08-18T11:53:32.907Z,22.26
2022-08-18T11:56:21.182Z,22.40
2022-08-18T11:59:04.124Z,20.66
2022-08-18T12:01:52.044Z,20.93
2022-08-18T12:04:19.717Z,21.33
2022-08-18T12:06:54.147Z,22.11
2022-08-18T12:10:15.379Z,21.95
2022-08-18T12:12:24.312Z,21.30
2022-08-18T12:15:13.623Z,21.98
2022-08-18T12:17:52.657Z,21.77
2022-08-18T12:20:21.411Z,21.55
2022-08-18T12:22:49.828Z,21.12
2022-08-18T12:28:05.555Z,19.57
2022-08-18T12:30:38.389Z,20.55
2022-08-18T12:33:12.204Z,20.11
2022-08-18T12:35:41.866Z,19.16
2022-08-18T12:38:13.048Z,19.22
2022-08-18T12:40:41.879Z,19.31
2022-08-18T12:43:09.298Z,19.24
2022-08-18T12:45:38.209Z,19.09
2022-08-18T12:48:06.684Z,19.22
2022-08-18T12:53:30.707Z,20.24
2022-08-18T12:59:11.203Z,18.43
2022-08-18T13:01:39.924Z,18.12
2022-08-18T13:04:12.495Z,18.94
2022-08-18T13:06:46.972Z,17.75
2022-08-18T13:09:48.639Z,17.80
2022-08-18T13:12:16.653Z,16.77
2022-08-18T13:14:44.844Z,16.96
2022-08-18T13:17:32.129Z,16.96
2022-08-18T13:20:00.790Z,16.86
2022-08-18T13:22:32.324Z,16.46
2022-08-18T13:25:01.507Z,16.90
2022-08-18T13:27:33.149Z,17.87
2022-08-18T13:30:26.198Z,17.13
2022-08-18T13:33:00.537Z,17.84
2022-08-18T13:35:37.914Z,17.79
2022-08-18T13:38:14.288Z,17.55
2022-08-18T13:40:48.287Z,17.54
2022-08-18T13:43:17.571Z,17.02
2022-08-18T13:45:53.051Z,17.12
2022-08-18T13:48:24.339Z,16.67
2022-08-18T13:50:55.735Z,16.81
2022-08-18T13:53:23.733Z,16.61
2022-08-18T13:55:52.066Z,16.72
2022-08-18T13:58:20.695Z,17.33
2022-08-18T14:00:51.653Z,16.43
2022-08-18T14:03:42.291Z,16.89
2022-08-18T14:06:07.894Z,16.47
2022-08-18T14:08:35.381Z,17.44
2022-08-18T14:11:02.897Z,17.07
2022-08-18T14:13:30.426Z,16.61
2022-08-18T14:16:18.717Z,17.04
2022-08-18T14:19:09.796Z,16.62
2022-08-18T14:21:58.377Z,17.05
2022-08-18T14:24:48.995Z,16.75
2022-08-18T14:27:17.816Z,17.83
2022-08-18T14:29:47.955Z,17.32
2022-08-18T14:32:18.043Z,17.39
2022-08-18T14:34:50.773Z,17.67
2022-08-18T14:37:18.616Z,17.32
2022-08-18T14:39:50.293Z,16.74
2022-08-18T14:42:19.151Z,17.36
2022-08-18T14:45:03.509Z,17.69
2022-08-18T14:47:45.622Z,17.05
2022-08-18T14:50:17.541Z,16.70
2022-08-18T14:52:51.212Z,16.23
2022-08-18T14:55:18.408Z,16.53
2022-08-18T14:57:45.597Z,15.94
2022-08-18T15:00:16.182Z,15.66
2022-08-18T15:02:46.751Z,15.52
2022-08-18T15:05:19.568Z,16.93
2022-08-18T15:07:51.232Z,16.15
2022-08-18T15:10:19.977Z,15.45
2022-08-18T15:12:51.574Z,15.50
2022-08-18T15:15:22.352Z,16.34
2022-08-18T15:17:52.835Z,16.60
2022-08-18T15:20:28.586Z,15.83
2022-08-18T15:23:22.836Z,16.44
2022-08-18T15:25:56.441Z,17.22
2022-08-18T15:28:25.297Z,16.50
2022-08-18T15:31:16.841Z,16.32
2022-08-18T15:33:40.003Z,16.38
2022-08-18T15:36:10.149Z,16.11
2022-08-18T15:38:38.396Z,16.78
2022-08-18T15:41:09.192Z,16.37
2022-08-18T15:43:45.951Z,17.08
2022-08-18T15:46:14.008Z,15.97
2022-08-18T15:48:43.924Z,16.81
2022-08-18T15:51:12.046Z,15.80
2022-08-18T15:53:44.638Z,15.48
2022-08-18T15:56:13.696Z,16.27
2022-08-18T15:58:41.142Z,17.29
2022-08-18T16:01:20.764Z,15.94
2022-08-18T16:03:50.029Z,16.60
2022-08-18T16:06:20.360Z,16.10
2022-08-18T16:08:47.694Z,15.79
2022-08-18T16:11:24.631Z,17.55
2022-08-18T16:13:58.896Z,17.09
2022-08-18T16:16:29.299Z,16.89
2022-08-18T16:19:04.761Z,17.73
2022-08-18T16:21:32.278Z,17.83
2022-08-18T16:23:59.466Z,18.06
2022-08-18T16:26:26.678Z,18.26
2022-08-18T16:28:54.132Z,18.57
2022-08-18T16:31:25.091Z,17.83
2022-08-18T16:33:53.814Z,17.62
2022-08-18T16:36:21.727Z,18.28
2022-08-18T16:38:48.885Z,18.26
2022-08-18T16:41:21.005Z,17.92
2022-08-18T16:43:48.491Z,18.15
2022-08-18T16:46:21.410Z,18.36
2022-08-18T16:48:50.415Z,18.16
2022-08-18T16:51:22.413Z,17.97
2022-08-18T16:53:52.493Z,18.40
2022-08-18T16:56:20.749Z,18.55
2022-08-18T16:59:06.515Z,18.47
2022-08-18T17:01:53.420Z,18.30
2022-08-18T17:04:22.509Z,18.53
2022-08-18T17:06:50.341Z,18.60
2022-08-18T17:09:18.326Z,18.36
2022-08-18T17:11:51.434Z,18.37
2022-08-18T17:14:22.904Z,18.66
2022-08-18T17:16:54.415Z,18.76
2022-08-18T17:19:26.166Z,18.65
2022-08-18T17:21:53.487Z,18.25
2022-08-18T17:24:31.784Z,20.42
2022-08-18T17:27:03.945Z,20.33
2022-08-18T17:29:43.960Z,19.78
2022-08-18T17:32:24.671Z,19.87
2022-08-18T17:34:55.945Z,19.76
2022-08-18T17:37:24.041Z,19.61
2022-08-18T17:39:54.979Z,19.84
2022-08-18T17:42:29.086Z,19.84
2022-08-18T17:45:07.378Z,19.92
2022-08-18T17:47:38.028Z,19.76
2022-08-18T17:50:26.806Z,19.76
2022-08-18T17:53:00.408Z,20.02
2022-08-18T17:55:34.903Z,19.88
2022-08-18T17:58:25.384Z,19.87
2022-08-18T18:00:52.878Z,20.00
2022-08-18T18:03:20.370Z,20.05
2022-08-18T18:05:49.393Z,20.14
2022-08-18T18:08:17.116Z,20.03
2022-08-18T18:13:34.233Z,20.18
2022-08-18T18:16:03.492Z,20.33
2022-08-18T18:18:41.968Z,20.46
2022-08-18T18:21:15.612Z,20.57
2022-08-18T18:23:45.925Z,20.40
2022-08-18T18:26:19.321Z,20.63
2022-08-18T18:28:46.661Z,20.52
2022-08-18T18:31:18.260Z,20.57
2022-08-18T18:33:45.639Z,20.77
2022-08-18T18:36:12.842Z,20.78
2022-08-18T18:38:46.119Z,20.89
2022-08-18T18:41:13.267Z,20.93
2022-08-18T18:43:42.107Z,20.80
2022-08-18T18:46:09.231Z,20.93
2022-08-18T18:48:57.311Z,20.72
2022-08-18T18:51:35.913Z,20.79
2022-08-18T18:54:23.785Z,20.93
2022-08-18T18:56:52.156Z,20.99
2022-08-18T18:59:38.579Z,20.91
2022-08-18T19:02:13.491Z,20.76
2022-08-18T19:05:07.722Z,20.81
2022-08-18T19:07:54.011Z,21.05
2022-08-18T19:10:33.479Z,20.96
2022-08-18T19:13:02.549Z,21.35
2022-08-18T19:15:29.696Z,21.46
2022-08-18T19:18:05.443Z,21.48
2022-08-18T19:20:35.973Z,21.52
2022-08-18T19:23:15.539Z,21.39
2022-08-18T19:26:01.599Z,21.56
2022-08-18T19:28:35.590Z,21.59
2022-08-18T19:31:24.711Z,21.64
2022-08-18T19:33:53.672Z,21.82
2022-08-18T19:36:39.175Z,21.58
2022-08-18T19:39:11.289Z,21.69
2022-08-18T19:41:39.524Z,21.58
2022-08-18T19:44:10.428Z,21.84
2022-08-18T19:46:38.584Z,21.82
2022-08-18T19:49:05.706Z,22.16
2022-08-18T19:51:34.471Z,22.37
2022-08-18T19:54:02.179Z,22.38
2022-08-18T19:56:41.282Z,22.54
2022-08-18T19:59:23.693Z,22.65
2022-08-18T20:02:00.089Z,22.26
2022-08-18T20:04:27.540Z,22.94
2022-08-18T20:07:17.499Z,23.13
2022-08-18T20:09:48.567Z,22.65
2022-08-18T20:12:16.262Z,23.15
2022-08-18T20:14:43.743Z,23.73
2022-08-18T20:17:21.325Z,23.58
2022-08-18T20:20:12.794Z,23.12
2022-08-18T20:22:45.594Z,22.92
2022-08-18T20:25:16.475Z,23.46
2022-08-18T20:27:45.906Z,24.31
2022-08-18T20:30:28.492Z,24.15
2022-08-18T20:33:11.504Z,23.80
2022-08-18T20:35:46.813Z,24.16
2022-08-18T20:38:18.775Z,25.00
2022-08-18T20:40:48.926Z,24.41
2022-08-18T20:43:30.526Z,23.98
2022-08-18T20:46:07.673Z,23.89
2022-08-18T20:48:42.305Z,25.29
2022-08-18T20:51:13.958Z,24.21
2022-08-18T20:53:49.929Z,24.57
2022-08-18T20:56:32.029Z,25.01
2022-08-18T20:59:21.819Z,26.43
2022-08-18T21:01:55.245Z,25.45
2022-08-18T21:04:34.267Z,24.88
2022-08-18T21:07:12.793Z,24.79
2022-08-18T21:09:40.845Z,25.18
2022-08-18T21:12:11.596Z,24.91
2022-08-18T21:14:42.155Z,24.77
2022-08-18T21:17:13.177Z,24.94
2022-08-18T21:19:40.682Z,24.56
2022-08-18T21:22:08.134Z,26.21
2022-08-18T21:24:37.877Z,25.15
2022-08-18T21:27:23.740Z,25.31
2022-08-18T21:29:52.123Z,25.33
2022-08-18T21:32:21.515Z,25.27
2022-08-18T21:34:48.653Z,25.39
2022-08-18T21:37:18.004Z,25.63
2022-08-18T21:39:48.242Z,25.43
2022-08-18T21:42:20.988Z,25.30
2022-08-18T21:44:48.305Z,25.47
2022-08-18T21:47:29.210Z,25.37
2022-08-18T21:49:59.001Z,26.13
2022-08-18T21:52:28.240Z,25.82
2022-08-18T21:54:57.528Z,26.08
2022-08-18T21:57:25.625Z,26.18
2022-08-18T22:00:22.244Z,25.93
2022-08-18T22:02:52.171Z,26.08
2022-08-18T22:05:28.095Z,26.15
2022-08-18T22:07:55.539Z,26.06
2022-08-18T22:10:47.648Z,26.13
2022-08-18T22:13:41.676Z,25.99
2022-08-18T22:16:24.635Z,25.96
2022-08-18T22:19:04.694Z,25.91
2022-08-18T22:21:32.192Z,25.92
2022-08-18T22:24:19.174Z,25.90
2022-08-18T22:27:02.236Z,26.23
2022-08-18T22:29:33.951Z,26.70
2022-08-18T22:32:01.650Z,26.48
2022-08-18T22:34:30.327Z,27.16
2022-08-18T22:37:23.804Z,26.83
2022-08-18T22:39:53.090Z,26.94
2022-08-18T22:42:21.371Z,26.76
2022-08-18T22:44:48.549Z,26.90
2022-08-18T22:47:15.836Z,27.86
2022-08-18T22:49:43.576Z,26.98
2022-08-18T22:52:30.051Z,27.30
2022-08-18T22:55:06.767Z,27.53
2022-08-18T22:57:36.490Z,27.58
2022-08-18T23:00:07.657Z,27.74
2022-08-18T23:02:37.450Z,27.73
2022-08-18T23:05:05.249Z,27.48
2022-08-18T23:07:32.567Z,27.17
2022-08-18T23:10:00.020Z,27.78
2022-08-18T23:12:27.487Z,27.34
2022-08-18T23:14:54.986Z,27.50
2022-08-18T23:17:22.530Z,28.03
2022-08-18T23:19:52.019Z,28.13
2022-08-18T23:22:19.594Z,27.87
2022-08-18T23:24:48.636Z,28.17
2022-08-18T23:27:16.868Z,28.14
2022-08-18T23:29:44.023Z,28.00
2022-08-18T23:32:11.200Z,27.91
2022-08-18T23:34:38.669Z,28.42
2022-08-18T23:37:06.459Z,28.35
2022-08-18T23:39:34.862Z,29.20
2022-08-18T23:42:02.999Z,28.98
2022-08-18T23:44:31.540Z,29.24
2022-08-18T23:46:59.932Z,29.12
2022-08-18T23:49:31.150Z,28.95
2022-08-18T23:51:59.116Z,29.17
2022-08-18T23:54:27.906Z,28.67
2022-08-18T23:56:55.392Z,28.74
2022-08-18T23:59:23.250Z,28.93
